createdAt,value
2018-05-12T00:01:01.638Z,12.01
2018-05-12T00:21:37.474Z,11.83
2018-05-12T00:42:13.154Z,11.77
2018-05-12T01:02:45.362Z,11.49
2018-05-12T01:23:23.298Z,10.84
2018-05-12T01:44:00.409Z,10.93
2018-05-12T02:04:32.921Z,10.70
2018-05-12T02:25:08.806Z,10.48
2018-05-12T02:45:44.377Z,10.07
2018-05-12T03:06:18.430Z,9.71
2018-05-12T03:26:53.697Z,9.75
2018-05-12T03:47:28.055Z,9.55
2018-05-12T04:08:19.292Z,9.21
2018-05-12T04:28:53.769Z,9.11
2018-05-12T04:49:31.737Z,9.23
2018-05-12T05:10:09.105Z,9.52
2018-05-12T05:30:43.145Z,10.15
2018-05-12T05:51:17.499Z,10.71
2018-05-12T06:11:53.690Z,11.72
2018-05-12T06:32:29.255Z,12.40
2018-05-12T06:53:04.504Z,13.46
2018-05-12T07:13:37.354Z,14.26
2018-05-12T07:34:11.707Z,15.15
2018-05-12T07:54:44.826Z,16.18
2018-05-12T08:15:20.097Z,17.22
2018-05-12T08:35:56.292Z,17.85
2018-05-12T08:56:33.411Z,18.80
2018-05-12T09:17:06.833Z,19.46
2018-05-12T09:37:43.030Z,19.91
2018-05-12T09:58:18.301Z,20.32
2018-05-12T10:18:51.419Z,20.75
2018-05-12T10:39:26.938Z,21.10
2018-05-12T10:59:59.142Z,21.57
2018-05-12T11:20:32.347Z,21.74
2018-05-12T11:41:06.371Z,22.33
2018-05-12T12:01:39.492Z,22.46
2018-05-12T12:22:17.028Z,23.01
2018-05-12T12:42:50.032Z,23.32
2018-05-12T13:03:26.224Z,23.87
2018-05-12T13:24:00.580Z,24.34
2018-05-12T13:44:37.700Z,24.97
2018-05-12T14:05:10.814Z,25.49
2018-05-12T14:25:46.423Z,25.14
2018-05-12T14:46:20.435Z,26.39
2018-05-12T15:06:51.850Z,26.57
2018-05-12T15:27:27.908Z,27.53
2018-05-12T15:48:01.037Z,26.95
2018-05-12T16:08:33.231Z,26.65
2018-05-12T16:29:07.273Z,26.09
2018-05-12T16:49:42.546Z,25.95
2018-05-12T17:10:16.891Z,26.58
2018-05-12T17:30:51.386Z,24.98
2018-05-12T17:45:38.158Z,24.50
2018-05-12T18:06:18.034Z,24.01
2018-05-12T18:26:55.451Z,23.50
2018-05-12T18:47:30.953Z,22.97
2018-05-12T19:08:04.774Z,21.72
2018-05-12T19:28:39.115Z,21.00
2018-05-12T19:49:11.318Z,20.29
2018-05-12T20:09:47.899Z,19.87
2018-05-12T20:30:22.147Z,19.42
2018-05-12T20:50:55.910Z,18.84
2018-05-12T21:11:30.510Z,18.80
2018-05-12T21:32:03.378Z,18.65
2018-05-12T21:52:39.881Z,18.49
2018-05-12T22:13:16.071Z,18.08
2018-05-12T22:33:49.410Z,17.66
2018-05-12T22:54:22.621Z,17.62
2018-05-12T23:14:57.591Z,17.37
2018-05-12T23:35:34.091Z,16.94
2018-05-12T23:56:09.317Z,16.68
